Time;durP1;ratioP1;P1;durP2;ratioP2;P2;SDS_P1;SDS_P2;PMS_P1;PMS_P2;Temp;Humidity;BMP_temperature;BMP_pressure;BME280_temperature;BME280_humidity;BME280_pressure;Samples;Min_cycle;Max_cycle;Signal;HPM_P1;HPM_P2
2021/01/18 00:02:04;;;;;;;349.18;120.85;;;;;;;-14.15;59.97;101429.22;1639963;85;25839;-78
2021/01/18 00:04:32;;;;;;;327.40;118.05;;;;;;;-14.11;60.11;101423.17;1668727;84;28953;-78
2021/01/18 00:07:04;;;;;;;342.60;118.35;;;;;;;-14.10;60.03;101418.43;1672104;84;25831;-78
2021/01/18 00:09:33;;;;;;;349.65;120.35;;;;;;;-14.13;60.02;101414.16;1641776;84;25834;-78
2021/01/18 00:12:00;;;;;;;355.75;124.40;;;;;;;-14.17;59.92;101416.77;1649247;84;26053;-81
2021/01/18 00:14:27;;;;;;;362.68;119.67;;;;;;;-14.20;59.99;101411.23;1651224;84;25957;-78
2021/01/18 00:16:55;;;;;;;338.37;118.45;;;;;;;-14.18;60.07;101412.08;1658545;85;27553;-77
2021/01/18 00:19:22;;;;;;;330.87;115.92;;;;;;;-14.08;60.47;101413.69;1633904;84;25810;-78
2021/01/18 00:21:50;;;;;;;336.30;122.02;;;;;;;-13.97;60.24;101414.88;1651242;84;25873;-77
2021/01/18 00:24:17;;;;;;;345.95;120.33;;;;;;;-14.01;59.93;101411.92;1647868;84;26362;-78
2021/01/18 00:26:48;;;;;;;340.92;118.67;;;;;;;-14.05;59.97;101415.39;1642046;84;26396;-78
2021/01/18 00:29:15;;;;;;;333.80;115.70;;;;;;;-14.01;59.89;101410.20;1648810;84;27553;-78
2021/01/18 00:31:44;;;;;;;347.65;117.17;;;;;;;-13.97;59.93;101412.31;1629871;84;25732;-77
2021/01/18 00:34:12;;;;;;;357.83;123.92;;;;;;;-14.02;59.66;101408.91;1648208;85;25869;-77
2021/01/18 00:36:48;;;;;;;351.18;121.25;;;;;;;-14.11;59.54;101411.59;1690510;83;26206;-78
2021/01/18 00:39:15;;;;;;;351.88;119.50;;;;;;;-14.20;59.59;101405.23;1624758;84;25845;-77
2021/01/18 00:41:43;;;;;;;379.73;128.00;;;;;;;-14.26;59.74;101406.98;1626481;85;28455;-76
2021/01/18 00:44:10;;;;;;;369.27;125.40;;;;;;;-14.22;59.89;101415.55;1650939;85;25839;-77
2021/01/18 00:46:37;;;;;;;374.10;130.12;;;;;;;-14.27;59.63;101418.58;1650211;84;25734;-76
2021/01/18 00:49:05;;;;;;;379.93;130.90;;;;;;;-14.34;59.49;101415.66;1632322;84;26453;-77
2021/01/18 00:51:38;;;;;;;394.67;129.15;;;;;;;-14.43;59.59;101417.86;1656333;84;25850;-77
2021/01/18 00:54:06;;;;;;;356.45;126.67;;;;;;;-14.41;59.42;101415.30;1660337;84;27309;-76
2021/01/18 00:56:35;;;;;;;374.80;128.97;;;;;;;-14.44;59.41;101412.73;1657515;84;26086;-77
2021/01/18 00:59:03;;;;;;;392.50;130.95;;;;;;;-14.47;59.41;101405.89;1636453;84;25776;-76
2021/01/18 01:01:40;;;;;;;380.23;130.00;;;;;;;-14.47;59.43;101413.61;1789078;79;26201;-79
2021/01/18 01:04:08;;;;;;;377.77;129.12;;;;;;;-14.57;59.46;101415.84;1744595;80;26574;-76
2021/01/18 01:06:35;;;;;;;369.68;130.57;;;;;;;-14.56;59.42;101415.41;1738150;80;27558;-78
2021/01/18 01:09:04;;;;;;;405.77;134.95;;;;;;;-14.60;59.45;101417.13;1760261;80;26026;-77
2021/01/18 01:11:32;;;;;;;380.73;129.40;;;;;;;-14.63;59.33;101415.02;1727668;80;26281;-78
2021/01/18 01:13:59;;;;;;;371.80;133.37;;;;;;;-14.65;59.28;101412.89;1759884;80;25431;-78
2021/01/18 01:16:27;;;;;;;389.60;132.07;;;;;;;-14.70;59.34;101406.49;1752180;80;25841;-78
2021/01/18 01:18:54;;;;;;;391.10;134.72;;;;;;;-14.76;59.40;101403.97;1745417;80;28410;-78
2021/01/18 01:21:21;;;;;;;396.90;134.85;;;;;;;-14.72;59.42;101408.65;1698492;80;25861;-78
2021/01/18 01:23:49;;;;;;;379.93;135.05;;;;;;;-14.71;59.36;101416.80;1717079;80;25805;-77
2021/01/18 01:26:16;;;;;;;374.20;128.85;;;;;;;-14.69;59.34;101413.33;1728045;80;25739;-78
2021/01/18 01:28:43;;;;;;;416.48;137.12;;;;;;;-14.69;59.23;101407.36;1717111;82;25868;-77
2021/01/18 01:31:11;;;;;;;398.18;136.50;;;;;;;-14.79;59.32;101405.68;1655642;84;27560;-78
2021/01/18 01:33:38;;;;;;;389.93;130.90;;;;;;;-14.68;60.05;101402.20;1675824;83;26567;-79
2021/01/18 01:36:06;;;;;;;399.88;132.20;;;;;;;-14.71;59.53;101402.20;1680077;84;25908;-77
2021/01/18 01:38:34;;;;;;;384.13;134.50;;;;;;;-14.94;59.37;101394.20;1693594;83;25796;-77
2021/01/18 01:41:02;;;;;;;391.45;133.80;;;;;;;-14.99;59.82;101395.55;1699910;82;26131;-78
2021/01/18 01:43:29;;;;;;;405.95;135.20;;;;;;;-14.85;60.50;101400.59;1660731;83;27668;-78
2021/01/18 01:45:56;;;;;;;390.90;138.28;;;;;;;-14.80;60.43;101396.28;1671243;82;26537;-77
2021/01/18 01:48:25;;;;;;;392.68;133.75;;;;;;;-14.81;60.20;101392.84;1681427;83;25897;-76
2021/01/18 01:50:53;;;;;;;405.80;139.05;;;;;;;-14.81;60.20;101395.84;1684895;84;25551;-77
2021/01/18 01:53:24;;;;;;;398.90;136.82;;;;;;;-14.82;60.05;101391.58;1685944;83;26450;-80
2021/01/18 01:55:52;;;;;;;377.32;127.90;;;;;;;-14.85;59.93;101386.02;1676872;83;28325;-78
2021/01/18 01:58:20;;;;;;;394.35;131.25;;;;;;;-14.94;59.69;101382.22;1683380;83;25757;-78
2021/01/18 02:00:49;;;;;;;391.00;131.90;;;;;;;-15.05;59.56;101383.56;1690880;82;25557;-77
2021/01/18 02:03:31;;;;;;;358.90;125.87;;;;;;;-15.02;59.88;101382.70;1690568;83;25776;-78
2021/01/18 02:05:58;;;;;;;377.10;131.27;;;;;;;-14.97;59.76;101387.39;1690078;82;25997;-77
2021/01/18 02:08:26;;;;;;;385.13;128.27;;;;;;;-15.05;59.67;101390.41;1704538;82;27521;-78
2021/01/18 02:10:53;;;;;;;358.23;122.28;;;;;;;-15.12;59.51;101390.05;1697607;84;26129;-76
2021/01/18 02:13:52;;;;;;;382.10;123.90;;;;;;;-15.27;59.35;101393.55;1681115;84;25960;-78
2021/01/18 02:16:43;;;;;;;366.55;128.53;;;;;;;-15.34;59.35;101392.28;1701236;82;25851;-78
2021/01/18 02:19:41;;;;;;;353.85;123.30;;;;;;;-15.46;59.26;101387.23;1688966;84;26513;-77
2021/01/18 02:22:37;;;;;;;357.90;126.92;;;;;;;-15.57;59.14;101387.70;1708536;82;28468;-77
2021/01/18 02:25:15;;;;;;;361.90;118.28;;;;;;;-15.69;59.22;101392.44;1709489;82;26136;-78
2021/01/18 02:28:14;;;;;;;368.97;131.87;;;;;;;-15.77;59.64;101393.31;1709521;82;25867;-79
2021/01/18 02:31:15;;;;;;;394.32;134.47;;;;;;;-15.71;60.09;101390.76;1705160;82;25415;-78
2021/01/18 02:34:17;;;;;;;359.07;128.47;;;;;;;-15.68;60.57;101392.02;1700443;82;25897;-78
2021/01/18 02:36:56;;;;;;;373.52;127.55;;;;;;;-15.60;61.16;101386.41;1692889;82;27122;-77
2021/01/18 02:39:50;;;;;;;368.27;128.42;;;;;;;-15.54;61.02;101396.69;1724816;82;26452;-78
2021/01/18 02:42:28;;;;;;;371.75;128.65;;;;;;;-15.56;60.76;101388.97;1672540;82;25772;-77
2021/01/18 02:44:59;;;;;;;357.83;125.30;;;;;;;-15.68;60.19;101399.29;1698772;82;26068;-77
2021/01/18 02:47:32;;;;;;;392.45;133.63;;;;;;;-15.77;60.53;101401.88;1698224;82;25802;-77
2021/01/18 02:50:03;;;;;;;370.17;128.60;;;;;;;-15.77;60.51;101396.73;1707512;82;27527;-77
2021/01/18 02:52:30;;;;;;;366.60;126.07;;;;;;;-15.84;60.43;101404.47;1655872;82;25909;-75
2021/01/18 02:54:58;;;;;;;378.58;127.97;;;;;;;-15.83;60.68;101399.75;1694493;82;25785;-78
2021/01/18 02:57:27;;;;;;;378.35;126.25;;;;;;;-15.86;60.43;101398.90;1684595;83;25829;-77
2021/01/18 02:59:57;;;;;;;309.67;108.70;;;;;;;-15.90;60.61;101402.75;1727865;81;26045;-78
2021/01/18 03:02:48;;;;;;;365.32;122.20;;;;;;;-15.88;60.88;101406.17;1675259;85;28464;-77
2021/01/18 03:05:38;;;;;;;367.68;127.78;;;;;;;-15.78;60.92;101411.73;1688224;83;26485;-77
2021/01/18 03:08:28;;;;;;;370.35;127.92;;;;;;;-15.82;61.11;101414.30;1676222;84;25903;-77
2021/01/18 03:11:13;;;;;;;383.75;128.87;;;;;;;-15.77;61.24;101414.70;1702245;83;26422;-77
2021/01/18 03:14:03;;;;;;;360.13;125.05;;;;;;;-15.73;61.35;101415.55;1719831;83;25748;-77
2021/01/18 03:16:37;;;;;;;400.50;131.60;;;;;;;-15.70;61.30;101421.97;1685492;83;28542;-77
2021/01/18 03:19:06;;;;;;;365.43;124.50;;;;;;;-15.57;61.58;101417.23;1677477;83;26422;-77
2021/01/18 03:21:33;;;;;;;371.90;128.53;;;;;;;-15.58;60.90;101407.80;1705849;83;25772;-76
2021/01/18 03:24:01;;;;;;;381.57;126.55;;;;;;;-15.76;60.71;101406.16;1659069;84;25810;-76
2021/01/18 03:26:28;;;;;;;388.75;129.85;;;;;;;-15.71;61.00;101397.17;1677471;83;26465;-77
2021/01/18 03:28:56;;;;;;;400.05;136.07;;;;;;;-15.62;61.29;101399.69;1663777;83;27545;-77
2021/01/18 03:31:23;;;;;;;370.27;129.15;;;;;;;-15.57;61.20;101396.27;1693622;84;25713;-77
2021/01/18 03:33:50;;;;;;;385.50;131.03;;;;;;;-15.57;61.44;101398.83;1660544;84;26019;-76
2021/01/18 03:36:18;;;;;;;397.90;139.47;;;;;;;-15.56;61.45;101397.95;1669154;83;26449;-76
2021/01/18 03:38:45;;;;;;;390.92;135.22;;;;;;;-15.61;61.51;101398.42;1673700;83;25867;-77
2021/01/18 03:41:13;;;;;;;394.65;133.18;;;;;;;-15.60;61.66;101400.53;1699199;83;28881;-76
2021/01/18 03:43:40;;;;;;;408.23;141.97;;;;;;;-15.57;61.76;101394.98;1689560;82;25883;-77
2021/01/18 03:46:07;;;;;;;381.30;136.60;;;;;;;-15.52;61.62;101396.25;1675521;83;26449;-77
2021/01/18 03:48:34;;;;;;;393.12;133.35;;;;;;;-15.51;61.63;101393.67;1677067;83;25905;-77
2021/01/18 03:51:02;;;;;;;357.90;127.20;;;;;;;-15.46;61.42;101391.09;1684861;83;26228;-78
2021/01/18 03:53:29;;;;;;;387.12;127.90;;;;;;;-15.47;61.37;101385.52;1656974;84;27552;-76
2021/01/18 03:55:57;;;;;;;398.98;135.75;;;;;;;-15.40;61.52;101378.19;1675937;83;25804;-77
2021/01/18 03:58:24;;;;;;;387.77;129.23;;;;;;;-15.36;61.45;101383.30;1657734;83;25831;-80
2021/01/18 04:00:51;;;;;;;390.35;129.93;;;;;;;-15.41;61.50;101381.60;1695085;83;25711;-78
2021/01/18 04:03:19;;;;;;;389.48;132.12;;;;;;;-15.37;61.54;101373.02;1645622;84;26717;-78
2021/01/18 04:05:46;;;;;;;393.35;136.28;;;;;;;-15.40;61.56;101373.91;1695013;83;27597;-77
2021/01/18 04:08:15;;;;;;;394.67;135.00;;;;;;;-15.40;61.36;101376.48;1694228;83;26373;-78
2021/01/18 04:10:42;;;;;;;400.50;132.70;;;;;;;-15.35;61.26;101385.45;1683904;84;25930;-77
2021/01/18 04:13:10;;;;;;;391.00;136.95;;;;;;;-15.31;61.30;101385.86;1639262;84;25782;-77
2021/01/18 04:15:37;;;;;;;376.55;139.30;;;;;;;-15.33;60.80;101380.70;1695653;83;25848;-76
2021/01/18 04:18:04;;;;;;;382.37;136.20;;;;;;;-15.41;60.69;101385.03;1659142;84;27424;-77
2021/01/18 04:20:32;;;;;;;396.50;136.05;;;;;;;-15.47;60.65;101381.24;1686377;84;26215;-78
2021/01/18 04:23:04;;;;;;;398.45;133.87;;;;;;;-15.54;60.79;101382.57;1661867;84;26444;-76
2021/01/18 04:25:29;;;;;;;393.05;135.10;;;;;;;-15.53;60.63;101376.14;1663507;84;25877;-76
2021/01/18 04:27:59;;;;;;;399.52;135.18;;;;;;;-15.53;60.72;101377.84;1694370;83;25930;-76
2021/01/18 04:30:33;;;;;;;393.45;136.10;;;;;;;-15.60;60.71;101373.58;1696515;83;27538;-77
2021/01/18 04:33:07;;;;;;;378.83;128.72;;;;;;;-15.63;60.80;101370.62;1650735;84;26452;-78
2021/01/18 04:35:37;;;;;;;364.80;126.35;;;;;;;-15.64;60.91;101375.31;1694170;83;25704;-78
2021/01/18 04:38:05;;;;;;;407.60;135.75;;;;;;;-15.54;61.30;101377.44;1662186;85;25977;-77
2021/01/18 04:40:34;;;;;;;391.12;128.75;;;;;;;-15.48;61.03;101374.84;1647187;84;25899;-76
2021/01/18 04:43:03;;;;;;;380.37;126.07;;;;;;;-15.47;60.99;101367.12;1655936;84;27357;-76
2021/01/18 04:45:31;;;;;;;395.60;131.32;;;;;;;-15.54;60.60;101362.86;1691876;84;25690;-76
2021/01/18 04:48:00;;;;;;;382.10;127.90;;;;;;;-15.57;60.64;101362.89;1660378;84;25874;-77
2021/01/18 04:50:29;;;;;;;405.75;132.72;;;;;;;-15.54;60.72;101366.70;1697759;83;26589;-77
2021/01/18 04:53:16;;;;;;;386.35;131.47;;;;;;;-15.64;60.55;101362.48;1683991;84;26139;-78
2021/01/18 04:55:49;;;;;;;383.40;128.70;;;;;;;-15.63;60.39;101356.92;1660537;84;28340;-77
2021/01/18 04:58:18;;;;;;;404.80;131.50;;;;;;;-15.69;60.06;101355.67;1633848;84;25864;-76
2021/01/18 05:00:52;;;;;;;408.23;137.25;;;;;;;-15.79;60.19;101358.67;1695425;83;32543;-78
2021/01/18 05:03:22;;;;;;;410.85;130.20;;;;;;;-15.87;60.31;101352.72;1682546;83;25797;-77
2021/01/18 05:06:13;;;;;;;359.73;128.40;;;;;;;-15.88;60.62;101362.55;1655868;83;25810;-78
2021/01/18 05:09:09;;;;;;;389.90;129.10;;;;;;;-15.88;60.85;101356.13;1682814;83;27533;-76
2021/01/18 05:11:37;;;;;;;387.90;128.40;;;;;;;-15.83;61.20;101347.14;1701849;83;25862;-79
2021/01/18 05:14:05;;;;;;;402.45;135.10;;;;;;;-15.78;61.13;101338.59;1700902;83;25760;-77
2021/01/18 05:16:37;;;;;;;390.02;127.72;;;;;;;-15.72;61.16;101339.84;1652391;84;25873;-78
2021/01/18 05:19:11;;;;;;;387.75;129.03;;;;;;;-15.65;60.90;101332.52;1678648;83;25725;-77
2021/01/18 05:21:48;;;;;;;379.30;132.03;;;;;;;-15.69;60.88;101329.55;1670676;83;28290;-76
2021/01/18 05:24:18;;;;;;;379.85;126.72;;;;;;;-15.58;61.06;101341.05;1706910;83;25366;-79
2021/01/18 05:27:02;;;;;;;;;;;;;;;-15.54;60.93;101334.62;1660345;84;25399;-78
2021/01/18 05:29:32;;;;;;;362.77;123.40;;;;;;;-15.53;60.99;101335.06;1684713;84;26475;-78
2021/01/18 05:32:00;;;;;;;381.25;127.38;;;;;;;-15.55;60.68;101325.22;1680780;83;25973;-78
2021/01/18 05:34:28;;;;;;;376.75;127.22;;;;;;;-15.64;60.30;101320.12;1699870;83;28684;-78
2021/01/18 05:36:56;;;;;;;386.82;125.87;;;;;;;-15.76;60.33;101326.60;1674770;83;25557;-78
2021/01/18 05:39:33;;;;;;;355.23;121.75;;;;;;;-15.75;60.54;101327.01;1681982;83;25893;-79
2021/01/18 05:42:01;;;;;;;369.20;126.70;;;;;;;-15.68;60.54;101337.69;1697304;83;26442;-78
2021/01/18 05:44:35;;;;;;;394.40;132.75;;;;;;;-15.68;60.44;101341.95;1695207;83;25798;-77
2021/01/18 05:47:08;;;;;;;388.45;132.75;;;;;;;-15.72;60.35;101347.97;1693339;83;28492;-78
2021/01/18 05:49:48;;;;;;;377.62;126.12;;;;;;;-15.69;60.56;101344.95;1709322;83;26456;-77
2021/01/18 05:52:31;;;;;;;330.37;106.15;;;;;;;-15.69;60.38;101346.23;1669224;84;25871;-76
2021/01/18 05:55:30;;;;;;;375.27;125.50;;;;;;;-15.72;60.33;101349.25;1680684;83;26531;-76
2021/01/18 05:58:01;;;;;;;381.63;127.62;;;;;;;-15.82;60.25;101345.02;1687493;83;25949;-76
2021/01/18 06:00:38;;;;;;;369.25;124.97;;;;;;;-15.85;60.20;101344.59;1678778;83;28431;-75
2021/01/18 06:03:11;;;;;;;369.80;129.25;;;;;;;-15.91;60.31;101342.88;1700564;83;25813;-76
2021/01/18 06:05:41;;;;;;;391.75;127.32;;;;;;;-15.86;60.43;101350.56;1664774;84;25949;-77
2021/01/18 06:08:17;;;;;;;392.32;127.38;;;;;;;-15.88;60.30;101350.58;1688188;83;25881;-77
2021/01/18 06:10:47;;;;;;;381.77;124.67;;;;;;;-15.87;60.44;101345.02;1687777;83;26529;-76
2021/01/18 06:13:29;;;;;;;394.27;129.90;;;;;;;-15.90;60.29;101354.86;1654979;84;27414;-76
2021/01/18 06:16:10;;;;;;;373.57;123.60;;;;;;;-15.88;60.49;101358.70;1679776;84;25835;-76
2021/01/18 06:18:40;;;;;;;391.17;124.42;;;;;;;-15.90;60.29;101357.43;1669618;83;25406;-76
2021/01/18 06:21:10;;;;;;;384.25;125.60;;;;;;;-15.90;60.31;101357.43;1715609;82;26420;-77
2021/01/18 06:23:38;;;;;;;394.05;128.25;;;;;;;-15.94;60.17;101362.14;1665587;84;25747;-77
2021/01/18 06:26:05;;;;;;;360.15;124.97;;;;;;;-16.00;60.04;101363.45;1676967;84;27586;-76
2021/01/18 06:28:38;;;;;;;380.37;136.03;;;;;;;-16.04;60.02;101368.16;1644095;84;26125;-77
2021/01/18 06:31:10;;;;;;;360.35;125.20;;;;;;;-16.05;60.04;101366.86;1670969;85;25933;-76
2021/01/18 06:33:47;;;;;;;382.45;128.42;;;;;;;-16.08;59.96;101366.44;1674746;84;25780;-76
2021/01/18 06:36:26;;;;;;;379.05;128.12;;;;;;;-16.06;60.19;101367.31;1681800;84;25870;-75
2021/01/18 06:39:06;;;;;;;386.87;129.23;;;;;;;-16.00;60.36;101365.16;1672377;84;28424;-78
2021/01/18 06:41:37;;;;;;;383.13;127.30;;;;;;;-15.99;60.35;101363.86;1698853;84;25377;-76
2021/01/18 06:44:06;;;;;;;361.32;123.02;;;;;;;-15.97;60.37;101365.16;1671837;84;25813;-78
2021/01/18 06:46:36;;;;;;;378.65;128.30;;;;;;;-15.99;60.49;101361.29;1667169;84;25871;-78
2021/01/18 06:49:05;;;;;;;382.65;130.52;;;;;;;-15.92;60.66;101362.13;1683053;83;26169;-78
2021/01/18 06:51:34;;;;;;;374.55;130.05;;;;;;;-15.88;60.47;101362.55;1671432;84;27729;-78
2021/01/18 06:54:05;;;;;;;383.50;128.75;;;;;;;-15.87;60.52;101369.41;1661453;84;25764;-78
2021/01/18 06:56:53;;;;;;;379.40;132.15;;;;;;;-15.90;60.44;101369.40;1668985;84;25962;-78
2021/01/18 06:59:51;;;;;;;382.95;130.40;;;;;;;-15.86;60.83;101369.39;1694709;83;26687;-78
2021/01/18 07:02:29;;;;;;;375.25;130.20;;;;;;;-15.86;60.52;101367.25;1676382;82;25886;-76
2021/01/18 07:05:07;;;;;;;381.32;130.00;;;;;;;-15.86;60.81;101369.81;1711777;82;27643;-78
2021/01/18 07:07:38;;;;;;;382.50;130.80;;;;;;;-15.85;60.98;101368.97;1722304;81;25895;-77
2021/01/18 07:10:10;;;;;;;372.42;129.53;;;;;;;-15.87;61.13;101371.55;1696412;81;25843;-77
2021/01/18 07:12:38;;;;;;;372.10;125.58;;;;;;;-15.77;61.33;101377.91;1724182;81;26419;-78
2021/01/18 07:15:10;;;;;;;385.90;126.70;;;;;;;-15.72;61.25;101368.08;1691406;83;26218;-78
2021/01/18 07:17:53;;;;;;;353.75;123.00;;;;;;;-15.67;61.32;101379.16;1673555;82;27539;-78
2021/01/18 07:20:26;;;;;;;358.40;125.22;;;;;;;-15.64;61.49;101376.59;1662669;83;25562;-77
2021/01/18 07:23:17;;;;;;;365.25;122.92;;;;;;;-15.58;61.39;101370.16;1686739;83;25725;-78
2021/01/18 07:25:48;;;;;;;341.63;115.80;;;;;;;-15.53;61.46;101372.28;1684930;83;25809;-77
2021/01/18 07:28:19;;;;;;;341.60;116.57;;;;;;;-15.49;61.69;101376.97;1682324;84;26113;-77
2021/01/18 07:30:49;;;;;;;346.55;118.00;;;;;;;-15.41;61.85;101368.34;1674147;83;27664;-78
2021/01/18 07:33:18;;;;;;;356.85;118.90;;;;;;;-15.34;61.84;101373.02;1682355;83;25802;-77
2021/01/18 07:35:47;;;;;;;311.73;117.15;;;;;;;-15.25;61.92;101379.41;1681781;82;25681;-77
2021/01/18 07:38:27;;;;;;;336.20;119.37;;;;;;;-15.18;61.81;101377.23;1667855;83;25779;-77
2021/01/18 07:41:11;;;;;;;315.70;112.72;;;;;;;-15.10;61.78;101381.47;1678188;84;25584;-77
2021/01/18 07:43:47;;;;;;;306.10;114.35;;;;;;;-14.99;61.81;101380.55;1679152;83;26338;-77
2021/01/18 07:46:31;;;;;;;328.55;112.75;;;;;;;-14.92;61.76;101386.91;1677506;83;26313;-77
2021/01/18 07:49:19;;;;;;;327.52;116.30;;;;;;;-14.91;61.89;101383.92;1712573;83;25808;-79
2021/01/18 07:51:46;;;;;;;325.98;115.60;;;;;;;-14.82;61.83;101390.30;1694423;83;25833;-78
2021/01/18 07:54:32;;;;;;;308.15;111.90;;;;;;;-14.86;61.71;101397.61;1682358;83;25862;-77
2021/01/18 07:57:30;;;;;;;315.00;108.45;;;;;;;-14.94;61.72;101401.49;1685195;83;27321;-77
2021/01/18 08:00:24;;;;;;;299.45;107.60;;;;;;;-14.89;61.82;101401.05;1676330;83;25799;-77
2021/01/18 08:03:10;;;;;;;297.60;110.88;;;;;;;-14.89;61.90;101404.04;1703137;83;25770;-78
2021/01/18 08:05:41;;;;;;;289.45;105.75;;;;;;;-14.96;61.93;101410.93;1707445;83;25815;-77
2021/01/18 08:08:17;;;;;;;326.20;124.20;;;;;;;-14.98;62.17;101423.36;1703132;83;25948;-78
2021/01/18 08:11:13;;;;;;;291.23;112.00;;;;;;;-15.03;62.55;101427.23;1676422;83;28557;-77
2021/01/18 08:13:53;;;;;;;310.88;115.30;;;;;;;-14.97;63.15;101429.80;1714048;82;26126;-78
2021/01/18 08:16:35;;;;;;;266.98;98.30;;;;;;;-14.95;62.99;101434.50;1686696;83;25908;-76
2021/01/18 08:19:26;;;;;;;278.12;96.30;;;;;;;-15.09;62.88;101431.98;1651233;82;25829;-78
2021/01/18 08:21:59;;;;;;;231.85;79.70;;;;;;;-15.19;63.10;101438.45;1680948;83;26106;-78
2021/01/18 08:24:35;;;;;;;194.28;73.35;;;;;;;-15.32;63.36;101434.22;1704375;83;28888;-77
2021/01/18 08:27:08;;;;;;;235.65;81.00;;;;;;;-15.39;63.61;101438.52;1685399;83;26046;-79
2021/01/18 08:29:52;;;;;;;189.60;70.72;;;;;;;-15.50;63.88;101441.58;1686256;82;26120;-76
2021/01/18 08:32:40;;;;;;;236.07;79.92;;;;;;;-15.53;64.20;101445.88;1711846;82;26527;-75
2021/01/18 08:35:21;;;;;;;224.80;80.35;;;;;;;-15.56;65.01;101442.89;1668716;83;26400;-76
2021/01/18 08:37:55;;;;;;;227.62;78.95;;;;;;;-15.47;65.37;101442.00;1711682;83;27603;-76
2021/01/18 08:40:38;;;;;;;215.92;79.62;;;;;;;-15.43;65.58;101438.14;1687487;82;26520;-76
2021/01/18 08:43:06;;;;;;;222.90;76.77;;;;;;;-15.41;65.95;101446.66;1680203;83;25894;-76
2021/01/18 08:45:55;;;;;;;226.42;78.22;;;;;;;-15.32;66.11;101443.21;1659529;82;25835;-76
2021/01/18 08:48:29;;;;;;;224.10;83.60;;;;;;;-15.15;66.37;101445.28;1672302;84;25850;-76
2021/01/18 08:50:59;;;;;;;242.30;82.72;;;;;;;-15.06;66.42;101440.98;1681525;83;28514;-76
2021/01/18 08:53:36;;;;;;;185.40;70.87;;;;;;;-14.99;66.29;101445.66;1679860;83;26393;-76
2021/01/18 08:56:07;;;;;;;233.40;82.67;;;;;;;-14.92;66.34;101440.89;1675386;83;25798;-75
2021/01/18 08:58:44;;;;;;;220.45;79.55;;;;;;;-14.85;66.27;101434.86;1656530;83;25806;-76
2021/01/18 09:01:19;;;;;;;234.50;83.97;;;;;;;-14.77;66.18;101428.38;1679458;83;25984;-75
2021/01/18 09:04:02;;;;;;;222.63;80.87;;;;;;;-14.59;66.49;101424.00;1681237;83;27256;-75
2021/01/18 09:06:30;;;;;;;253.27;85.87;;;;;;;-14.45;66.26;101435.03;1678068;83;26047;-76
2021/01/18 09:09:05;;;;;;;242.28;86.65;;;;;;;-14.39;66.09;101433.69;1679843;82;25883;-76
2021/01/18 09:11:33;;;;;;;204.35;74.67;;;;;;;-14.35;66.05;101431.97;1671497;83;26274;-76
2021/01/18 09:14:01;;;;;;;248.18;86.15;;;;;;;-14.28;65.89;101429.72;1671376;84;25893;-76
2021/01/18 09:16:28;;;;;;;246.20;83.85;;;;;;;-14.34;65.91;101425.52;1677379;83;28570;-76
2021/01/18 09:19:05;;;;;;;234.95;83.85;;;;;;;-14.25;66.12;101425.42;1681841;82;25878;-76
2021/01/18 09:21:34;;;;;;;248.43;88.42;;;;;;;-14.22;65.93;101425.38;1693417;83;26227;-75
2021/01/18 09:24:07;;;;;;;243.10;85.07;;;;;;;-14.22;66.11;101426.66;1693765;83;25638;-76
2021/01/18 09:26:35;;;;;;;233.78;87.02;;;;;;;-14.21;66.17;101427.53;1691747;83;27115;-76
2021/01/18 09:29:02;;;;;;;248.78;85.92;;;;;;;-14.22;66.10;101421.98;1683529;82;27478;-76
2021/01/18 09:31:30;;;;;;;250.25;90.38;;;;;;;-14.25;66.33;101423.27;1721662;82;26080;-75
2021/01/18 09:34:12;;;;;;;275.80;94.07;;;;;;;-14.20;66.67;101415.09;1696320;82;25732;-75
2021/01/18 09:36:41;;;;;;;261.65;89.92;;;;;;;-14.09;66.68;101412.43;1693683;83;26111;-75
2021/01/18 09:39:20;;;;;;;260.20;92.72;;;;;;;-14.03;66.79;101413.66;1709072;82;26114;-75
2021/01/18 09:41:47;;;;;;;246.05;89.55;;;;;;;-13.93;67.05;101413.55;1703274;82;27637;-75
2021/01/18 09:44:16;;;;;;;267.27;94.00;;;;;;;-13.94;66.53;101409.72;1688641;83;25876;-76
2021/01/18 09:46:44;;;;;;;282.17;97.17;;;;;;;-13.95;66.67;101406.70;1684001;83;26008;-75
2021/01/18 09:49:11;;;;;;;391.27;182.55;;;;;;;-13.85;66.79;101405.74;1709606;82;26322;-76
2021/01/18 09:51:39;;;;;;;247.58;90.50;;;;;;;-13.76;66.70;101410.81;1704146;82;25908;-75
2021/01/18 09:54:11;;;;;;;269.30;92.20;;;;;;;-13.68;66.64;101407.28;1717476;82;27122;-76
2021/01/18 09:56:38;;;;;;;283.77;102.67;;;;;;;-13.63;66.58;101405.95;1691202;83;25795;-75
2021/01/18 09:59:09;;;;;;;262.50;93.87;;;;;;;-13.53;66.90;101391.66;1687047;83;25866;-75
2021/01/18 10:01:38;;;;;;;;;;;;;;;-13.30;66.99;101393.13;1698810;81;26495;-75
2021/01/18 10:04:08;;;;;;;247.58;86.22;;;;;;;-13.19;66.85;101391.28;1684571;83;25819;-76
2021/01/18 10:06:36;;;;;;;254.55;95.55;;;;;;;-13.05;66.87;101394.52;1699507;83;33105;-77
2021/01/18 10:09:09;;;;;;;266.45;92.62;;;;;;;-12.88;66.71;101398.55;1667160;83;26049;-76
2021/01/18 10:11:44;;;;;;;276.70;94.77;;;;;;;-12.75;66.35;101393.64;1662292;83;25810;-74
2021/01/18 10:14:20;;;;;;;259.70;93.82;;;;;;;-12.77;66.43;101401.84;1684321;83;26441;-79
2021/01/18 10:17:09;;;;;;;248.60;90.57;;;;;;;-12.63;66.34;101393.88;1644046;84;25885;-81
2021/01/18 10:19:38;;;;;;;267.00;93.40;;;;;;;-12.56;66.43;101387.77;1652674;84;28463;-77
2021/01/18 10:22:15;;;;;;;264.95;97.45;;;;;;;-12.38;66.12;101384.05;1664636;84;32738;-77
2021/01/18 10:24:57;;;;;;;262.30;96.60;;;;;;;-12.32;65.87;101391.26;1694514;84;25899;-77
2021/01/18 10:27:29;;;;;;;257.62;97.82;;;;;;;-12.30;65.56;101385.63;1685507;83;25912;-77
2021/01/18 10:30:14;;;;;;;259.18;93.85;;;;;;;-12.23;65.83;101385.09;1695841;83;26154;-77
2021/01/18 10:32:52;;;;;;;259.18;98.80;;;;;;;-12.18;65.74;101390.58;1692832;83;27327;-76
2021/01/18 10:35:31;;;;;;;266.27;98.35;;;;;;;-12.22;65.52;101387.64;1666831;84;25805;-76
2021/01/18 10:38:21;;;;;;;254.90;91.30;;;;;;;-12.13;65.88;101396.96;1679107;83;25890;-77
2021/01/18 10:41:06;;;;;;;272.07;98.72;;;;;;;-12.12;65.60;101392.19;1669234;84;26961;-78
2021/01/18 10:43:33;;;;;;;277.40;102.25;;;;;;;-12.01;66.22;101400.19;1690647;84;25899;-76
2021/01/18 10:46:01;;;;;;;254.28;93.87;;;;;;;-11.95;66.25;101394.05;1707790;82;27726;-78
2021/01/18 10:48:33;;;;;;;246.53;93.27;;;;;;;-11.97;66.20;101394.08;1675673;84;25915;-76
2021/01/18 10:51:03;;;;;;;239.70;86.00;;;;;;;-11.91;66.36;101402.19;1660800;84;26529;-78
2021/01/18 10:53:33;;;;;;;272.90;102.10;;;;;;;-11.86;66.47;101397.77;1675836;84;25812;-77
2021/01/18 10:56:16;;;;;;;262.90;101.95;;;;;;;-11.81;66.41;101401.56;1700586;82;26473;-76
2021/01/18 10:58:55;;;;;;;345.27;145.00;;;;;;;-11.79;66.33;101392.91;1712703;83;26146;-76
2021/01/18 11:01:22;;;;;;;317.50;121.07;;;;;;;-11.95;66.08;101394.91;1694715;82;25752;-77
2021/01/18 11:03:50;;;;;;;233.43;87.20;;;;;;;-11.89;66.67;101396.55;1693273;82;25929;-77
2021/01/18 11:06:21;;;;;;;214.38;78.67;;;;;;;-11.77;66.88;101393.73;1709689;82;26493;-76
2021/01/18 11:08:53;;;;;;;223.60;87.97;;;;;;;-11.73;66.32;101381.60;1692696;82;25826;-79
2021/01/18 11:11:24;;;;;;;217.65;86.95;;;;;;;-11.73;66.82;101383.75;1693078;82;27559;-77
2021/01/18 11:14:06;;;;;;;189.00;73.72;;;;;;;-11.66;66.77;101376.27;1682149;84;26391;-77
2021/01/18 11:16:33;;;;;;;193.68;75.28;;;;;;;-11.68;66.63;101367.73;1704615;82;25880;-77
2021/01/18 11:19:06;;;;;;;177.43;63.78;;;;;;;-11.62;66.98;101358.97;1667528;82;25957;-78